Time;durP1;ratioP1;P1;durP2;ratioP2;P2;SDS_P1;SDS_P2;PMS_P1;PMS_P2;Temp;Humidity;BMP_temperature;BMP_pressure;BME280_temperature;BME280_humidity;BME280_pressure;Samples;Min_cycle;Max_cycle;Signal;HPM_P1;HPM_P2
2022/09/10 00:00:33;;;;;;;34.83;32.42;;;18.50;73.60;;;;;;5071981;28;20040;-81
2022/09/10 00:03:02;;;;;;;35.25;32.92;;;18.50;73.90;;;;;;5074388;28;20048;-81
2022/09/10 00:05:28;;;;;;;30.83;29.02;;;18.50;73.90;;;;;;5074317;28;20040;-81
2022/09/10 00:07:54;;;;;;;33.22;30.77;;;18.50;74.10;;;;;;5056603;28;20488;-80
2022/09/10 00:10:21;;;;;;;31.02;28.88;;;18.50;74.30;;;;;;5039871;28;20039;-81
2022/09/10 00:12:47;;;;;;;30.08;27.48;;;18.40;74.40;;;;;;5023103;28;20492;-81
2022/09/10 00:15:19;;;;;;;26.92;25.27;;;18.40;74.50;;;;;;5038964;28;20033;-81
2022/09/10 00:17:45;;;;;;;28.42;26.27;;;18.40;74.50;;;;;;5072345;28;20045;-81
2022/09/10 00:20:11;;;;;;;28.85;26.55;;;18.40;74.50;;;;;;5074012;28;20059;-81
2022/09/10 00:22:37;;;;;;;26.30;24.25;;;18.40;74.70;;;;;;5056049;28;20032;-81
2022/09/10 00:25:04;;;;;;;26.98;24.92;;;18.30;74.10;;;;;;5039270;28;20044;-81
2022/09/10 00:27:30;;;;;;;28.70;26.70;;;18.30;74.60;;;;;;5071923;28;20044;-81
2022/09/10 00:29:56;;;;;;;29.02;26.15;;;18.30;74.50;;;;;;5073549;28;20488;-81
2022/09/10 00:32:22;;;;;;;27.50;25.38;;;18.30;74.50;;;;;;5038810;28;20032;-81
2022/09/10 00:34:49;;;;;;;25.23;23.23;;;18.30;74.70;;;;;;5073774;28;20033;-81
2022/09/10 00:37:15;;;;;;;24.67;22.55;;;18.30;74.90;;;;;;5073738;28;20028;-81
2022/09/10 00:39:41;;;;;;;24.48;22.38;;;18.30;74.90;;;;;;5055865;28;20040;-81
2022/09/10 00:42:10;;;;;;;26.30;23.65;;;18.30;75.40;;;;;;5038731;28;20388;-81
2022/09/10 00:44:39;;;;;;;26.35;24.30;;;18.20;75.10;;;;;;5073058;28;20450;-81
2022/09/10 00:47:31;;;;;;;25.73;23.67;;;18.20;75.20;;;;;;5073136;28;20040;-81
2022/09/10 00:50:20;;;;;;;24.27;22.63;;;18.20;74.80;;;;;;5055511;28;20401;-81
2022/09/10 00:52:47;;;;;;;26.42;24.45;;;18.20;75.30;;;;;;5041662;28;20032;-81
2022/09/10 00:55:13;;;;;;;24.63;22.60;;;18.10;75.80;;;;;;5038641;28;20039;-80
2022/09/10 00:57:39;;;;;;;25.13;22.95;;;18.10;76.10;;;;;;5038002;28;20396;-81
2022/09/10 01:00:09;;;;;;;24.25;22.13;;;18.10;76.40;;;;;;5055058;28;20047;-81
2022/09/10 01:02:35;;;;;;;23.70;21.52;;;18.10;76.00;;;;;;5055683;28;20024;-80
2022/09/10 01:05:01;;;;;;;26.55;24.30;;;18.10;75.80;;;;;;5055391;28;20024;-81
2022/09/10 01:07:28;;;;;;;26.45;24.30;;;18.10;75.90;;;;;;5038446;28;20370;-81
2022/09/10 01:09:56;;;;;;;27.58;25.55;;;18.10;76.00;;;;;;5054866;28;20059;-80
2022/09/10 01:12:41;;;;;;;28.52;26.13;;;18.10;76.10;;;;;;5055117;28;20017;-81
2022/09/10 01:15:16;;;;;;;28.85;26.48;;;18.10;76.20;;;;;;5054452;28;20044;-81
2022/09/10 01:18:04;;;;;;;27.65;25.85;;;18.10;76.40;;;;;;5072983;28;20032;-81
2022/09/10 01:20:42;;;;;;;28.15;25.92;;;18.00;76.30;;;;;;5073032;28;20039;-81
2022/09/10 01:23:14;;;;;;;28.42;26.20;;;18.00;76.60;;;;;;5055297;28;20032;-81
2022/09/10 01:26:09;;;;;;;29.67;27.30;;;18.00;76.60;;;;;;5072919;28;20036;-81
2022/09/10 01:28:40;;;;;;;27.70;25.70;;;18.00;76.80;;;;;;5040022;28;20371;-80
2022/09/10 01:31:24;;;;;;;29.70;27.20;;;17.90;77.00;;;;;;5017855;28;20041;-80
2022/09/10 01:34:12;;;;;;;26.63;24.40;;;17.80;77.80;;;;;;5035036;28;20036;-81
2022/09/10 01:36:39;;;;;;;25.55;23.70;;;17.70;78.30;;;;;;5052659;28;20044;-81
2022/09/10 01:39:05;;;;;;;25.65;23.40;;;17.80;78.20;;;;;;5018150;28;20049;-81
2022/09/10 01:41:31;;;;;;;23.42;21.50;;;17.70;78.30;;;;;;5050244;28;20037;-81
2022/09/10 01:43:57;;;;;;;27.05;24.52;;;17.80;78.10;;;;;;5054021;28;20432;-81
2022/09/10 01:46:38;;;;;;;28.40;25.90;;;17.80;78.20;;;;;;5071940;28;20470;-81
2022/09/10 01:49:09;;;;;;;23.52;21.38;;;17.80;78.20;;;;;;5054706;28;20060;-81
2022/09/10 01:52:14;;;;;;;24.92;22.63;;;17.70;78.70;;;;;;5053785;28;20397;-81
2022/09/10 01:54:58;;;;;;;24.95;22.98;;;17.70;78.50;;;;;;5010056;28;20072;-81
2022/09/10 01:57:28;;;;;;;25.17;23.55;;;17.80;78.20;;;;;;5009971;28;20038;-81
2022/09/10 02:00:11;;;;;;;29.02;27.02;;;17.80;78.20;;;;;;5010231;28;20034;-81
2022/09/10 02:02:45;;;;;;;29.98;27.67;;;17.80;78.00;;;;;;5008801;28;20094;-80
2022/09/10 02:05:11;;;;;;;31.20;29.13;;;17.80;78.10;;;;;;5010142;28;20034;-81
2022/09/10 02:07:38;;;;;;;31.73;29.73;;;17.80;77.70;;;;;;4993323;28;20042;-80
2022/09/10 02:10:06;;;;;;;31.50;29.13;;;17.80;77.90;;;;;;5009673;28;20041;-81
2022/09/10 02:12:32;;;;;;;29.45;27.10;;;17.80;77.70;;;;;;5009889;28;20065;-81
2022/09/10 02:14:58;;;;;;;28.33;26.42;;;17.80;77.70;;;;;;5009888;28;20045;-81
2022/09/10 02:17:30;;;;;;;27.42;25.45;;;17.80;78.80;;;;;;5009076;28;20042;-81
2022/09/10 02:19:56;;;;;;;26.20;24.30;;;17.70;78.00;;;;;;5008356;28;20046;-80
2022/09/10 02:22:22;;;;;;;27.83;25.75;;;17.70;78.00;;;;;;5009632;28;20026;-81
2022/09/10 02:24:49;;;;;;;28.85;27.00;;;17.70;77.90;;;;;;4992571;28;20041;-81
2022/09/10 02:27:15;;;;;;;27.13;25.08;;;17.70;78.00;;;;;;5009577;28;20486;-81
2022/09/10 02:29:41;;;;;;;22.27;20.42;;;17.60;78.40;;;;;;5007151;28;20411;-81
2022/09/10 02:32:08;;;;;;;23.50;21.67;;;17.60;78.70;;;;;;5053426;28;20024;-81
2022/09/10 02:34:35;;;;;;;23.17;21.48;;;17.60;78.60;;;;;;5053761;28;20021;-81
2022/09/10 02:37:02;;;;;;;25.23;23.35;;;17.60;78.60;;;;;;5053551;28;20035;-81
2022/09/10 02:39:31;;;;;;;24.70;22.70;;;17.60;78.60;;;;;;5053409;28;20048;-81
2022/09/10 02:41:57;;;;;;;23.05;20.83;;;17.60;78.90;;;;;;5071136;28;20032;-81
2022/09/10 02:44:25;;;;;;;24.15;22.27;;;17.60;78.70;;;;;;5053589;28;20362;-81
2022/09/10 02:46:51;;;;;;;23.15;20.27;;;17.60;78.60;;;;;;5052505;28;20073;-81
2022/09/10 02:49:17;;;;;;;23.98;21.73;;;17.60;78.50;;;;;;5053276;28;20052;-80
2022/09/10 02:51:43;;;;;;;24.05;22.15;;;17.60;78.30;;;;;;5071196;28;20032;-81
2022/09/10 02:54:09;;;;;;;21.38;19.27;;;17.60;78.40;;;;;;5052981;28;20029;-81
2022/09/10 02:56:35;;;;;;;24.27;21.90;;;17.60;78.80;;;;;;5053405;28;20037;-81
2022/09/10 02:59:02;;;;;;;23.45;21.13;;;17.60;78.60;;;;;;5053352;28;20044;-81
2022/09/10 03:01:28;;;;;;;21.05;19.17;;;17.60;78.60;;;;;;5052754;28;20401;-81
2022/09/10 03:03:55;;;;;;;24.80;22.50;;;17.60;78.50;;;;;;5036486;28;20059;-81
2022/09/10 03:06:22;;;;;;;25.73;23.70;;;17.50;78.60;;;;;;5053080;28;20028;-81
2022/09/10 03:08:48;;;;;;;25.00;23.08;;;17.50;78.20;;;;;;5052661;28;20024;-81
2022/09/10 03:11:15;;;;;;;17.05;15.73;;;17.50;78.60;;;;;;5052584;28;20043;-80
2022/09/10 03:13:44;;;;;;;19.80;17.83;;;17.40;78.20;;;;;;5053198;28;20043;-81
2022/09/10 03:16:14;;;;;;;17.48;15.60;;;17.40;78.50;;;;;;5070028;28;20040;-80
2022/09/10 03:18:40;;;;;;;19.27;16.17;;;17.40;78.50;;;;;;5052984;28;20090;-80
2022/09/10 03:21:25;;;;;;;19.17;17.17;;;17.30;78.50;;;;;;5052988;28;20035;-81
2022/09/10 03:23:52;;;;;;;16.58;15.02;;;17.30;78.60;;;;;;5035803;28;20544;-81
2022/09/10 03:26:19;;;;;;;17.40;15.75;;;17.30;78.50;;;;;;5052943;28;20033;-80
2022/09/10 03:28:45;;;;;;;17.52;15.85;;;17.30;78.60;;;;;;5036701;28;20025;-80
2022/09/10 03:31:12;;;;;;;16.45;15.15;;;17.30;78.50;;;;;;5032328;28;20032;-81
2022/09/10 03:33:39;;;;;;;15.77;14.07;;;17.20;78.70;;;;;;5015911;28;20040;-81
2022/09/10 03:36:06;;;;;;;15.27;13.88;;;17.30;78.80;;;;;;5032920;28;20028;-81
2022/09/10 03:38:32;;;;;;;15.65;13.95;;;17.30;78.70;;;;;;5032342;28;20033;-81
2022/09/10 03:41:01;;;;;;;16.73;15.10;;;17.20;78.70;;;;;;5044204;28;20055;-81
2022/09/10 03:43:28;;;;;;;16.40;14.90;;;17.10;79.00;;;;;;5053136;28;20031;-80
2022/09/10 03:45:54;;;;;;;20.52;15.25;;;17.10;79.40;;;;;;5070094;28;20103;-80
2022/09/10 03:48:20;;;;;;;16.27;14.52;;;17.20;79.30;;;;;;5036043;28;20052;-81
2022/09/10 03:50:48;;;;;;;16.75;15.10;;;17.20;79.30;;;;;;5035931;28;20039;-80
2022/09/10 03:53:14;;;;;;;15.55;14.10;;;17.20;79.20;;;;;;5052360;28;20036;-80
2022/09/10 03:55:44;;;;;;;15.38;13.88;;;17.20;79.00;;;;;;5052453;28;20397;-81
2022/09/10 03:58:11;;;;;;;14.82;13.27;;;17.10;78.90;;;;;;5052410;28;20047;-81
2022/09/10 04:00:37;;;;;;;15.30;13.98;;;17.10;78.80;;;;;;5035440;28;20374;-80
2022/09/10 04:03:04;;;;;;;18.27;13.70;;;17.00;79.40;;;;;;5035281;28;20037;-80
2022/09/10 04:05:31;;;;;;;15.48;13.85;;;17.00;79.40;;;;;;5051648;28;20047;-80
2022/09/10 04:08:01;;;;;;;15.25;13.80;;;17.10;79.50;;;;;;5052611;28;20028;-80
2022/09/10 04:10:28;;;;;;;15.70;14.25;;;17.00;79.10;;;;;;5036998;28;20377;-81
2022/09/10 04:12:54;;;;;;;15.63;14.05;;;17.00;79.20;;;;;;5052246;28;20040;-81
2022/09/10 04:15:20;;;;;;;17.27;14.45;;;17.00;79.40;;;;;;5070137;28;20052;-81
2022/09/10 04:17:50;;;;;;;15.13;13.70;;;17.00;79.70;;;;;;5035930;28;20039;-81
2022/09/10 04:20:19;;;;;;;14.55;13.23;;;16.90;79.60;;;;;;5036266;28;20052;-80
2022/09/10 04:22:46;;;;;;;15.15;13.68;;;17.00;79.40;;;;;;5035695;28;20040;-80
2022/09/10 04:25:14;;;;;;;15.80;13.70;;;16.90;80.10;;;;;;5035922;28;20024;-80
2022/09/10 04:27:41;;;;;;;15.48;13.93;;;16.90;79.50;;;;;;5035729;28;20556;-81
2022/09/10 04:30:08;;;;;;;16.25;13.98;;;16.90;79.50;;;;;;5051665;28;20033;-80
2022/09/10 04:32:34;;;;;;;16.35;14.90;;;16.90;79.50;;;;;;5052375;28;20044;-80
2022/09/10 04:35:03;;;;;;;14.68;13.20;;;16.90;80.60;;;;;;5035205;28;20028;-80
2022/09/10 04:37:30;;;;;;;15.57;14.07;;;16.80;80.60;;;;;;5070252;28;20028;-80
2022/09/10 04:39:56;;;;;;;16.23;14.35;;;16.80;80.10;;;;;;5051944;28;20043;-80
2022/09/10 04:42:22;;;;;;;15.25;13.85;;;16.80;80.00;;;;;;5052143;28;20035;-81
2022/09/10 04:44:48;;;;;;;15.18;13.50;;;16.80;80.00;;;;;;5055137;28;20469;-81
2022/09/10 04:47:14;;;;;;;14.90;13.55;;;16.80;79.70;;;;;;5055085;28;20040;-80
2022/09/10 04:49:41;;;;;;;16.35;14.93;;;16.80;79.70;;;;;;5054638;28;20040;-81
2022/09/10 04:52:08;;;;;;;15.98;14.43;;;16.80;80.00;;;;;;5055684;28;20099;-81
2022/09/10 04:54:35;;;;;;;15.05;13.50;;;16.70;79.70;;;;;;5073627;28;20035;-80
2022/09/10 04:57:01;;;;;;;14.68;13.32;;;16.70;80.00;;;;;;5073345;28;20465;-80
2022/09/10 04:59:28;;;;;;;14.93;13.55;;;16.70;79.90;;;;;;5055533;28;20040;-80
2022/09/10 05:01:54;;;;;;;15.30;13.82;;;16.70;79.90;;;;;;5072752;28;20039;-80
2022/09/10 05:04:20;;;;;;;15.95;14.15;;;16.70;79.90;;;;;;5055299;28;20040;-80
2022/09/10 05:06:49;;;;;;;15.27;14.20;;;16.70;80.40;;;;;;5055487;28;20029;-80
2022/09/10 05:09:18;;;;;;;15.60;14.07;;;16.70;80.20;;;;;;5055820;28;20037;-80
2022/09/10 05:11:48;;;;;;;16.13;14.65;;;16.70;79.70;;;;;;5038652;28;20048;-81
2022/09/10 05:14:14;;;;;;;15.25;13.90;;;16.70;80.00;;;;;;5053864;28;20043;-81
2022/09/10 05:16:42;;;;;;;15.05;13.77;;;16.60;80.20;;;;;;5038308;28;20035;-80
2022/09/10 05:19:08;;;;;;;16.15;14.23;;;16.70;79.90;;;;;;5054918;28;20036;-81
2022/09/10 05:21:34;;;;;;;15.43;13.70;;;16.70;79.70;;;;;;5037931;28;20050;-81
2022/09/10 05:24:00;;;;;;;15.93;14.57;;;16.60;79.60;;;;;;5038517;28;20035;-81
2022/09/10 05:26:26;;;;;;;15.45;14.05;;;16.50;80.20;;;;;;5038357;28;20484;-80
2022/09/10 05:28:53;;;;;;;15.98;14.55;;;16.50;80.10;;;;;;5054830;28;20037;-81
2022/09/10 05:31:19;;;;;;;15.88;14.38;;;16.50;80.20;;;;;;5072416;28;20037;-80
2022/09/10 05:33:45;;;;;;;15.52;14.20;;;16.40;80.10;;;;;;5054616;28;20028;-81
2022/09/10 05:36:12;;;;;;;16.88;15.07;;;16.50;80.40;;;;;;5054480;28;20041;-81
2022/09/10 05:38:38;;;;;;;16.15;14.38;;;16.50;80.30;;;;;;5021298;28;20040;-80
2022/09/10 05:41:07;;;;;;;16.02;14.52;;;16.50;80.30;;;;;;5054498;28;20056;-81
2022/09/10 05:43:33;;;;;;;15.63;14.20;;;16.50;80.00;;;;;;5037969;28;20484;-81
2022/09/10 05:45:59;;;;;;;19.00;14.52;;;16.50;80.20;;;;;;5049712;28;20029;-80
2022/09/10 05:48:25;;;;;;;15.98;14.30;;;16.40;80.40;;;;;;5054239;28;20801;-81
2022/09/10 05:50:51;;;;;;;15.48;13.57;;;16.30;80.30;;;;;;5054474;28;20028;-81
2022/09/10 05:53:18;;;;;;;16.05;13.40;;;16.40;80.50;;;;;;5054443;28;20063;-80
2022/09/10 05:55:44;;;;;;;15.45;14.15;;;16.40;80.60;;;;;;5036520;28;20044;-80
2022/09/10 05:58:12;;;;;;;14.88;13.38;;;16.40;80.50;;;;;;5054578;28;20040;-81
2022/09/10 06:00:38;;;;;;;15.07;13.57;;;16.40;80.70;;;;;;5054207;28;20311;-80
2022/09/10 06:03:04;;;;;;;16.52;13.15;;;16.40;80.80;;;;;;5036927;28;20044;-81
2022/09/10 06:05:31;;;;;;;13.82;12.73;;;16.40;81.00;;;;;;5037596;28;20498;-81
2022/09/10 06:07:57;;;;;;;15.82;14.32;;;16.50;80.90;;;;;;5054386;28;20040;-80
2022/09/10 06:10:23;;;;;;;14.63;13.45;;;16.50;80.80;;;;;;5053141;28;20033;-80
2022/09/10 06:12:50;;;;;;;15.93;14.50;;;16.50;81.20;;;;;;5054051;28;20033;-80
2022/09/10 06:15:17;;;;;;;14.75;13.30;;;16.50;80.90;;;;;;5036676;28;20037;-80
2022/09/10 06:17:43;;;;;;;17.75;13.93;;;16.50;81.60;;;;;;5037325;28;20051;-80
2022/09/10 06:20:11;;;;;;;15.40;14.07;;;16.60;81.70;;;;;;5053992;28;20044;-81
2022/09/10 06:22:38;;;;;;;18.30;16.67;;;16.70;82.50;;;;;;5020838;28;20037;-81
2022/09/10 06:25:05;;;;;;;25.80;23.75;;;16.80;83.00;;;;;;5072498;28;20043;-82
2022/09/10 06:27:31;;;;;;;33.75;31.48;;;17.00;83.00;;;;;;5047990;28;20032;-82
2022/09/10 06:29:57;;;;;;;44.40;41.58;;;17.20;82.90;;;;;;5034160;28;20033;-82
2022/09/10 06:32:24;;;;;;;28.65;26.85;;;17.40;82.70;;;;;;5032523;28;20049;-82
2022/09/10 06:34:50;;;;;;;20.80;19.50;;;17.60;82.60;;;;;;5033870;28;20041;-82
2022/09/10 06:37:17;;;;;;;20.77;18.73;;;17.90;81.90;;;;;;5033700;28;20056;-82
2022/09/10 06:39:43;;;;;;;20.88;19.50;;;18.10;81.40;;;;;;5034787;28;20044;-82
2022/09/10 06:42:09;;;;;;;22.27;20.65;;;18.30;80.50;;;;;;5071314;28;20025;-82
2022/09/10 06:44:35;;;;;;;23.02;21.30;;;18.50;79.60;;;;;;5053451;28;20032;-82
2022/09/10 06:47:01;;;;;;;32.28;30.35;;;18.70;79.10;;;;;;5052918;28;20503;-83
2022/09/10 06:49:30;;;;;;;32.22;30.08;;;18.90;78.30;;;;;;5053342;28;20046;-83
2022/09/10 06:51:56;;;;;;;34.03;31.85;;;19.10;78.10;;;;;;5071420;28;20024;-83
2022/09/10 06:54:25;;;;;;;32.92;30.83;;;19.30;77.00;;;;;;5053660;28;20033;-83
2022/09/10 06:56:51;;;;;;;32.63;30.08;;;19.50;76.00;;;;;;5053881;28;20028;-83
2022/09/10 06:59:17;;;;;;;33.00;30.63;;;19.70;75.30;;;;;;5071133;28;20036;-83
2022/09/10 07:01:46;;;;;;;32.58;30.48;;;19.80;74.90;;;;;;5036270;28;20036;-83
2022/09/10 07:04:12;;;;;;;34.50;32.25;;;20.00;74.80;;;;;;5053830;28;20469;-83
2022/09/10 07:06:38;;;;;;;39.03;36.58;;;20.20;74.40;;;;;;5070743;28;20025;-83
2022/09/10 07:09:04;;;;;;;38.78;36.35;;;20.30;73.20;;;;;;5071065;28;20032;-83
2022/09/10 07:11:31;;;;;;;40.28;37.67;;;20.50;72.90;;;;;;5053057;28;20043;-83
2022/09/10 07:13:57;;;;;;;42.50;40.00;;;20.60;72.20;;;;;;5052862;28;20036;-84
2022/09/10 07:16:24;;;;;;;42.67;40.15;;;20.70;72.40;;;;;;5019146;28;20379;-84
2022/09/10 07:18:54;;;;;;;42.63;39.78;;;20.80;71.90;;;;;;5053049;28;20040;-84
2022/09/10 07:21:21;;;;;;;43.25;40.72;;;20.90;71.20;;;;;;5036812;28;20408;-83
2022/09/10 07:23:47;;;;;;;42.85;40.28;;;21.00;71.90;;;;;;5053058;28;20059;-84
2022/09/10 07:26:15;;;;;;;37.85;35.70;;;21.20;70.60;;;;;;5036270;28;20036;-84
2022/09/10 07:28:41;;;;;;;38.85;36.58;;;21.30;70.30;;;;;;5070106;28;20032;-84
2022/09/10 07:31:12;;;;;;;32.17;29.98;;;21.40;69.80;;;;;;5052664;28;20387;-83
2022/09/10 07:33:38;;;;;;;37.60;35.08;;;21.50;70.10;;;;;;5052976;28;20032;-84
2022/09/10 07:36:08;;;;;;;38.95;36.28;;;21.70;69.90;;;;;;5052535;28;20037;-84
2022/09/10 07:38:38;;;;;;;40.03;37.42;;;21.70;69.30;;;;;;5053487;28;20036;-83
2022/09/10 07:41:05;;;;;;;30.52;28.42;;;21.80;69.00;;;;;;5036124;28;20044;-84
2022/09/10 07:43:31;;;;;;;35.38;33.42;;;21.80;68.30;;;;;;5052623;28;20350;-84
2022/09/10 07:45:57;;;;;;;35.08;32.50;;;21.90;67.80;;;;;;5052066;28;20029;-84
2022/09/10 07:48:25;;;;;;;32.55;30.40;;;21.90;68.10;;;;;;5070364;28;20045;-84
2022/09/10 07:50:52;;;;;;;42.92;40.33;;;21.90;67.40;;;;;;5052893;28;20363;-84
2022/09/10 07:53:18;;;;;;;35.38;33.08;;;21.80;67.00;;;;;;5052256;28;20040;-84
2022/09/10 07:55:44;;;;;;;31.80;29.95;;;21.80;67.70;;;;;;5052650;28;20029;-84
2022/09/10 07:58:10;;;;;;;28.58;26.67;;;21.80;67.50;;;;;;5035880;28;20460;-84
2022/09/10 08:00:37;;;;;;;28.30;26.80;;;21.90;67.20;;;;;;5034567;28;20032;-84
2022/09/10 08:03:03;;;;;;;32.50;30.17;;;22.10;66.80;;;;;;5052864;28;20474;-84
2022/09/10 08:05:29;;;;;;;32.40;30.33;;;22.10;66.00;;;;;;5036369;28;20033;-85
2022/09/10 08:07:56;;;;;;;30.67;28.67;;;22.10;66.40;;;;;;5052322;28;20037;-84
2022/09/10 08:10:22;;;;;;;35.80;33.90;;;22.20;66.20;;;;;;5070677;28;20041;-84
2022/09/10 08:12:48;;;;;;;30.83;28.85;;;22.40;66.00;;;;;;5052395;28;20040;-84
2022/09/10 08:15:15;;;;;;;33.70;31.10;;;22.50;65.00;;;;;;5070190;28;20381;-83
2022/09/10 08:17:41;;;;;;;29.10;27.05;;;22.50;64.40;;;;;;5052225;28;20037;-84
2022/09/10 08:20:08;;;;;;;31.00;28.85;;;22.40;63.60;;;;;;5074219;28;20035;-84
2022/09/10 08:22:34;;;;;;;28.80;27.20;;;22.50;65.20;;;;;;5056523;28;20457;-83
2022/09/10 08:25:01;;;;;;;31.50;29.45;;;22.60;64.30;;;;;;5039647;28;20044;-84
2022/09/10 08:27:27;;;;;;;34.13;32.13;;;22.60;63.70;;;;;;5039088;28;20461;-84
2022/09/10 08:29:53;;;;;;;28.48;26.83;;;22.60;62.40;;;;;;5056160;28;20496;-84
2022/09/10 08:32:23;;;;;;;30.42;28.73;;;22.60;62.60;;;;;;5039046;28;20453;-84
2022/09/10 08:34:49;;;;;;;34.35;32.13;;;22.60;63.20;;;;;;5055627;28;20507;-84
2022/09/10 08:37:15;;;;;;;30.98;28.95;;;22.50;63.00;;;;;;5074096;28;20031;-84
2022/09/10 08:39:42;;;;;;;34.78;32.65;;;22.50;63.10;;;;;;5055861;28;20048;-84
2022/09/10 08:42:15;;;;;;;36.35;34.42;;;22.70;63.30;;;;;;5073472;28;20378;-85
2022/09/10 08:44:52;;;;;;;36.45;34.17;;;22.80;62.60;;;;;;5055924;28;20039;-85
2022/09/10 08:47:45;;;;;;;39.15;36.80;;;23.00;61.60;;;;;;5055153;28;20047;-85
2022/09/10 08:50:30;;;;;;;43.40;40.65;;;23.20;60.10;;;;;;5040615;28;20059;-86
2022/09/10 08:53:17;;;;;;;45.40;42.70;;;23.40;59.80;;;;;;5055627;28;20024;-86
2022/09/10 08:55:43;;;;;;;33.75;31.85;;;23.40;59.60;;;;;;5073308;28;20416;-86
2022/09/10 08:58:17;;;;;;;33.22;31.35;;;23.40;59.80;;;;;;5022256;28;20048;-86
2022/09/10 09:00:44;;;;;;;25.40;23.88;;;23.40;58.20;;;;;;5039404;28;20485;-86
2022/09/10 09:03:10;;;;;;;22.77;21.17;;;23.50;58.60;;;;;;5038522;28;20052;-86
2022/09/10 09:05:57;;;;;;;24.33;22.90;;;23.70;57.50;;;;;;5055259;28;20489;-86
2022/09/10 09:08:24;;;;;;;21.75;20.25;;;23.70;56.10;;;;;;5055494;28;20025;-86
2022/09/10 09:11:18;;;;;;;21.23;19.63;;;23.60;56.50;;;;;;5038647;28;20020;-83
2022/09/10 09:14:38;;;;;;;21.83;20.52;;;23.60;56.20;;;;;;5058396;28;20021;-86
2022/09/10 09:17:26;;;;;;;20.23;19.10;;;23.70;56.00;;;;;;4991012;28;20530;-86
2022/09/10 09:20:14;;;;;;;25.30;23.70;;;23.90;56.00;;;;;;5011101;28;20042;-86
2022/09/10 09:22:44;;;;;;;25.05;23.75;;;24.10;55.30;;;;;;5011038;28;20026;-86
2022/09/10 09:25:49;;;;;;;24.67;22.95;;;24.20;54.90;;;;;;4977812;28;20045;-86
2022/09/10 09:28:39;;;;;;;24.45;23.15;;;24.30;55.40;;;;;;5009826;28;20037;-86
2022/09/10 09:31:21;;;;;;;24.35;22.77;;;24.30;54.30;;;;;;5009990;28;20045;-86
2022/09/10 09:33:47;;;;;;;25.88;24.13;;;24.50;54.00;;;;;;4994882;28;20506;-85
2022/09/10 09:36:16;;;;;;;26.25;24.88;;;24.40;53.90;;;;;;4978065;28;20057;-86
2022/09/10 09:38:44;;;;;;;24.83;23.30;;;24.50;53.60;;;;;;4994622;28;20395;-86
2022/09/10 09:41:40;;;;;;;23.77;22.48;;;24.50;52.50;;;;;;4993975;28;20038;-86
2022/09/10 09:44:40;;;;;;;24.58;22.98;;;24.40;52.30;;;;;;4955058;28;20034;-86
2022/09/10 09:47:07;;;;;;;26.33;24.65;;;24.40;52.70;;;;;;4954891;28;20043;-86
2022/09/10 09:49:34;;;;;;;30.30;28.60;;;24.40;53.10;;;;;;4971179;28;20035;-86
2022/09/10 09:52:01;;;;;;;28.83;27.23;;;24.30;52.20;;;;;;4990403;28;20042;-86
2022/09/10 09:54:28;;;;;;;25.80;24.20;;;24.30;52.70;;;;;;4958478;28;20034;-86
2022/09/10 09:56:57;;;;;;;25.65;24.02;;;24.40;52.40;;;;;;4942755;28;20086;-86
2022/09/10 09:59:26;;;;;;;24.80;23.40;;;24.40;52.70;;;;;;4990515;28;20043;-86
2022/09/10 10:01:54;;;;;;;26.85;25.13;;;24.30;52.90;;;;;;4957604;28;20046;-85
2022/09/10 10:04:22;;;;;;;26.65;25.25;;;24.10;52.30;;;;;;4942739;28;20035;-85
2022/09/10 10:06:56;;;;;;;26.23;24.42;;;24.00;53.00;;;;;;4958405;28;20030;-86
2022/09/10 10:09:25;;;;;;;29.52;28.02;;;24.10;53.20;;;;;;4958170;28;20071;-85
2022/09/10 10:12:03;;;;;;;28.50;26.88;;;24.00;52.10;;;;;;4974941;28;20041;-85
2022/09/10 10:14:38;;;;;;;26.40;24.98;;;24.00;52.80;;;;;;4958481;28;20047;-86
2022/09/10 10:17:29;;;;;;;26.70;25.13;;;24.20;53.20;;;;;;4957740;28;20041;-85
2022/09/10 10:19:59;;;;;;;27.88;26.40;;;24.20;52.20;;;;;;4956473;28;20058;-84
2022/09/10 10:22:26;;;;;;;26.25;24.75;;;24.30;52.20;;;;;;5036772;28;20469;-84
2022/09/10 10:24:53;;;;;;;26.50;24.77;;;24.20;52.60;;;;;;5054266;28;20385;-85
2022/09/10 10:27:32;;;;;;;29.13;27.60;;;24.40;52.70;;;;;;5053864;28;20021;-86
2022/09/10 10:30:22;;;;;;;29.55;27.75;;;24.60;52.20;;;;;;5054040;28;20055;-85
2022/09/10 10:32:58;;;;;;;30.58;28.65;;;24.70;51.90;;;;;;5039011;28;20039;-85
2022/09/10 10:35:34;;;;;;;28.90;27.35;;;24.80;52.20;;;;;;5053484;28;20043;-85
2022/09/10 10:38:11;;;;;;;31.58;29.67;;;25.00;51.70;;;;;;5052375;28;20055;-85
2022/09/10 10:40:42;;;;;;;29.05;27.33;;;25.10;51.70;;;;;;5052968;28;20442;-85
2022/09/10 10:43:34;;;;;;;26.90;25.35;;;25.30;51.70;;;;;;5054460;28;20033;-85
2022/09/10 10:46:12;;;;;;;27.92;26.33;;;25.10;50.70;;;;;;5035884;28;20024;-85
2022/09/10 10:48:44;;;;;;;31.58;29.65;;;25.10;50.60;;;;;;5052396;28;20040;-85
2022/09/10 10:51:32;;;;;;;28.42;26.83;;;25.20;50.70;;;;;;5054247;28;20401;-85
2022/09/10 10:54:27;;;;;;;27.08;25.20;;;25.30;50.20;;;;;;5054348;28;20028;-85
2022/09/10 10:56:58;;;;;;;26.17;24.58;;;25.20;50.60;;;;;;5053593;28;20028;-85
2022/09/10 11:00:13;;;;;;;24.27;22.88;;;25.30;50.80;;;;;;5053528;28;20480;-85
2022/09/10 11:02:51;;;;;;;25.10;23.60;;;25.30;50.60;;;;;;5029479;28;20041;-85
2022/09/10 11:05:38;;;;;;;23.85;22.48;;;25.20;50.30;;;;;;5038000;28;20029;-84
2022/09/10 11:08:13;;;;;;;23.55;22.15;;;25.20;49.70;;;;;;5020758;28;20540;-85
2022/09/10 11:10:59;;;;;;;23.30;21.83;;;24.80;50.30;;;;;;5020763;28;20041;-85
2022/09/10 11:13:50;;;;;;;25.67;24.17;;;24.60;51.20;;;;;;5021327;28;20040;-85
2022/09/10 11:16:27;;;;;;;25.42;24.00;;;24.70;51.70;;;;;;5045172;28;20039;-85
2022/09/10 11:18:57;;;;;;;23.05;21.55;;;24.80;51.60;;;;;;5036652;28;20029;-85
2022/09/10 11:21:25;;;;;;;25.35;23.95;;;24.80;51.20;;;;;;5052891;28;20059;-85
2022/09/10 11:24:03;;;;;;;24.15;22.85;;;24.90;51.10;;;;;;5053113;28;20036;-85
2022/09/10 11:27:04;;;;;;;25.10;23.65;;;24.80;51.30;;;;;;5036208;28;20040;-85
2022/09/10 11:29:40;;;;;;;24.77;23.38;;;24.80;51.70;;;;;;5052974;28;20033;-85
2022/09/10 11:32:33;;;;;;;23.92;22.58;;;24.90;50.70;;;;;;5035522;28;20047;-85
2022/09/10 11:35:41;;;;;;;24.73;23.27;;;25.00;50.90;;;;;;5052518;28;20029;-84
2022/09/10 11:38:22;;;;;;;24.05;22.55;;;24.90;50.00;;;;;;5032985;28;20043;-84
2022/09/10 11:41:09;;;;;;;23.30;22.00;;;24.70;50.80;;;;;;5052600;28;20482;-85
2022/09/10 11:43:42;;;;;;;24.67;23.33;;;24.80;50.20;;;;;;5052826;28;20032;-85
2022/09/10 11:46:35;;;;;;;26.02;24.63;;;24.90;50.10;;;;;;5052661;28;20025;-85
2022/09/10 11:49:22;;;;;;;28.52;27.13;;;25.00;49.20;;;;;;5061001;28;20052;-85
2022/09/10 11:51:48;;;;;;;28.90;27.20;;;25.20;49.20;;;;;;5052542;28;20031;-84
2022/09/10 11:54:21;;;;;;;25.75;24.33;;;25.20;48.90;;;;;;5056720;28;20039;-85
2022/09/10 11:57:00;;;;;;;28.92;27.27;;;25.30;49.60;;;;;;5040945;28;20465;-85
2022/09/10 11:59:44;;;;;;;26.95;25.55;;;25.40;48.50;;;;;;5024623;28;20409;-85
2022/09/10 12:03:05;;;;;;;25.52;24.05;;;25.50;48.90;;;;;;5074209;28;20028;-85
2022/09/10 12:05:39;;;;;;;33.15;31.33;;;25.50;48.50;;;;;;5011922;28;20407;-83
2022/09/10 12:08:35;;;;;;;29.08;27.58;;;25.50;47.60;;;;;;4995930;28;20060;-85
2022/09/10 12:11:13;;;;;;;29.20;27.70;;;25.70;46.80;;;;;;4937786;29;20042;-85
2022/09/10 12:13:40;;;;;;;26.90;25.20;;;25.70;47.90;;;;;;4953432;29;20396;-85
2022/09/10 12:16:21;;;;;;;30.00;28.33;;;25.80;48.00;;;;;;4953258;28;20059;-85
2022/09/10 12:18:47;;;;;;;;;;;25.90;47.50;;;;;;4953960;28;20042;-85
2022/09/10 12:21:41;;;;;;;27.85;26.27;;;25.90;47.50;;;;;;4953535;28;19926;-85
2022/09/10 12:24:27;;;;;;;27.95;26.27;;;25.80;47.40;;;;;;4935660;29;20038;-85
2022/09/10 12:26:53;;;;;;;25.05;23.63;;;25.40;47.90;;;;;;4937078;29;20050;-85
2022/09/10 12:29:35;;;;;;;27.48;26.02;;;25.20;47.90;;;;;;4937256;29;20035;-84
2022/09/10 12:32:07;;;;;;;27.30;25.67;;;25.30;47.90;;;;;;4952974;28;20039;-84
2022/09/10 12:34:36;;;;;;;26.58;25.17;;;25.20;48.20;;;;;;4953184;29;20050;-84
2022/09/10 12:37:02;;;;;;;24.13;22.73;;;24.90;48.50;;;;;;4953469;29;20416;-84
2022/09/10 12:39:28;;;;;;;24.40;23.10;;;24.90;49.00;;;;;;4959405;28;20038;-84
2022/09/10 12:41:55;;;;;;;27.15;25.63;;;25.00;49.00;;;;;;4975812;28;20053;-84
2022/09/10 12:44:34;;;;;;;30.65;28.95;;;25.20;49.90;;;;;;4975111;28;20061;-84
2022/09/10 12:47:15;;;;;;;27.80;26.20;;;25.40;47.70;;;;;;4996780;28;20031;-85
2022/09/10 12:49:56;;;;;;;28.52;26.95;;;25.60;48.20;;;;;;5073151;28;20052;-85